Rechercher aéroport 
image banner adimage banner adimage banner ad
image banner ad

1CL8 - Marian Medical Center

Situé à Santa Maria, United States

ICAO - 1CL8, IATA -

Données fournies par Airmate  

Information générale

Coordonnées: N34°57'2" W120°24'42"
Élévation : 256 feet MSL.
Variation magnétique : 15° East
Voir autres Aéroports à California

Données opérationnelles

Special qualification required
Heure actuelle UTC:
Heure actuelle locale:
METAR: KSMX 251451Z 00000KT 3SM BR OVC002 13/12 A3000 RMK AO2 SLP162 T01280122 53008
TAF: KSMX 251421Z 2514/2612 VRB05KT 1SM BR OVC002 FM251600 VRB05KT 4SM BR BKN005 BKN120 FM251800 30008KT P6SM SCT005 BKN120 FM260400 VRB03KT 6SM BR BKN007 BKN120 FM260800 VRB03KT 2SM BR OVC003
Voir NOTAMs / SUP AIP / TFR affectant cet aéroport [VIEW]
Fréquences de communication: [VIEW]

Pistes:

Coordonnées de l'aéroport

Adresse: Santa Maria United States

Vue satellite de 1CL8